sensor_id;sensor_type;location;lat;lon;timestamp;P1;durP1;ratioP1;P2;durP2;ratioP2
4424;SDS011;2225;53.568;13.266;2023-09-30T00:01:15;15.40;;;3.73;;
4424;SDS011;2225;53.568;13.266;2023-09-30T00:03:42;27.90;;;5.37;;
4424;SDS011;2225;53.568;13.266;2023-09-30T00:06:09;16.70;;;3.47;;
4424;SDS011;2225;53.568;13.266;2023-09-30T00:08:36;24.80;;;4.10;;
4424;SDS011;2225;53.568;13.266;2023-09-30T00:11:05;20.03;;;4.57;;
4424;SDS011;2225;53.568;13.266;2023-09-30T00:13:32;15.57;;;4.37;;
4424;SDS011;2225;53.568;13.266;2023-09-30T00:15:59;18.70;;;4.60;;
4424;SDS011;2225;53.568;13.266;2023-09-30T00:18:26;23.03;;;5.07;;
4424;SDS011;2225;53.568;13.266;2023-09-30T00:20:54;20.67;;;4.90;;
4424;SDS011;2225;53.568;13.266;2023-09-30T00:23:21;18.93;;;4.27;;
4424;SDS011;2225;53.568;13.266;2023-09-30T00:25:47;25.57;;;5.03;;
4424;SDS011;2225;53.568;13.266;2023-09-30T00:28:17;20.57;;;5.03;;
4424;SDS011;2225;53.568;13.266;2023-09-30T00:30:45;19.97;;;4.97;;
4424;SDS011;2225;53.568;13.266;2023-09-30T00:33:14;20.57;;;4.77;;
4424;SDS011;2225;53.568;13.266;2023-09-30T00:35:41;19.33;;;4.47;;
4424;SDS011;2225;53.568;13.266;2023-09-30T00:38:08;16.97;;;4.10;;
4424;SDS011;2225;53.568;13.266;2023-09-30T00:40:36;18.60;;;4.30;;
4424;SDS011;2225;53.568;13.266;2023-09-30T00:43:03;19.00;;;4.10;;
4424;SDS011;2225;53.568;13.266;2023-09-30T00:45:30;19.80;;;4.90;;
4424;SDS011;2225;53.568;13.266;2023-09-30T00:47:57;18.27;;;4.00;;
4424;SDS011;2225;53.568;13.266;2023-09-30T00:50:24;17.83;;;4.97;;
4424;SDS011;2225;53.568;13.266;2023-09-30T00:52:53;20.90;;;4.47;;
4424;SDS011;2225;53.568;13.266;2023-09-30T00:55:20;14.40;;;4.40;;
4424;SDS011;2225;53.568;13.266;2023-09-30T00:57:47;19.40;;;4.23;;
4424;SDS011;2225;53.568;13.266;2023-09-30T01:00:14;30.67;;;5.37;;
4424;SDS011;2225;53.568;13.266;2023-09-30T01:02:43;21.80;;;5.30;;
4424;SDS011;2225;53.568;13.266;2023-09-30T01:05:11;17.43;;;5.00;;
4424;SDS011;2225;53.568;13.266;2023-09-30T01:07:38;23.00;;;5.10;;
4424;SDS011;2225;53.568;13.266;2023-09-30T01:10:05;18.80;;;4.63;;
4424;SDS011;2225;53.568;13.266;2023-09-30T01:12:32;15.70;;;4.17;;
4424;SDS011;2225;53.568;13.266;2023-09-30T01:15:01;22.43;;;4.40;;
4424;SDS011;2225;53.568;13.266;2023-09-30T01:17:32;19.07;;;4.90;;
4424;SDS011;2225;53.568;13.266;2023-09-30T01:19:59;20.83;;;6.00;;
4424;SDS011;2225;53.568;13.266;2023-09-30T01:22:27;18.43;;;4.87;;
4424;SDS011;2225;53.568;13.266;2023-09-30T01:24:56;20.67;;;5.37;;
4424;SDS011;2225;53.568;13.266;2023-09-30T01:27:23;16.63;;;5.17;;
4424;SDS011;2225;53.568;13.266;2023-09-30T01:29:50;22.93;;;4.37;;
4424;SDS011;2225;53.568;13.266;2023-09-30T01:32:17;20.20;;;4.97;;
4424;SDS011;2225;53.568;13.266;2023-09-30T01:34:44;26.37;;;5.40;;
4424;SDS011;2225;53.568;13.266;2023-09-30T01:37:11;20.57;;;4.47;;
4424;SDS011;2225;53.568;13.266;2023-09-30T01:39:37;19.23;;;5.20;;
4424;SDS011;2225;53.568;13.266;2023-09-30T01:42:05;18.50;;;5.07;;
4424;SDS011;2225;53.568;13.266;2023-09-30T01:44:32;24.77;;;5.73;;
4424;SDS011;2225;53.568;13.266;2023-09-30T01:46:59;28.13;;;6.17;;
4424;SDS011;2225;53.568;13.266;2023-09-30T01:49:26;19.77;;;5.50;;
4424;SDS011;2225;53.568;13.266;2023-09-30T01:51:54;24.33;;;5.30;;
4424;SDS011;2225;53.568;13.266;2023-09-30T01:54:21;21.33;;;5.13;;
4424;SDS011;2225;53.568;13.266;2023-09-30T01:56:48;18.80;;;4.53;;
4424;SDS011;2225;53.568;13.266;2023-09-30T01:59:16;27.00;;;5.20;;
4424;SDS011;2225;53.568;13.266;2023-09-30T02:01:44;19.13;;;5.00;;
4424;SDS011;2225;53.568;13.266;2023-09-30T02:04:12;23.53;;;6.27;;
4424;SDS011;2225;53.568;13.266;2023-09-30T02:06:41;19.17;;;4.87;;
4424;SDS011;2225;53.568;13.266;2023-09-30T02:09:09;18.07;;;5.90;;
4424;SDS011;2225;53.568;13.266;2023-09-30T02:11:36;25.63;;;5.23;;
4424;SDS011;2225;53.568;13.266;2023-09-30T02:14:04;21.27;;;5.37;;
4424;SDS011;2225;53.568;13.266;2023-09-30T02:16:33;32.83;;;5.30;;
4424;SDS011;2225;53.568;13.266;2023-09-30T02:19:02;23.10;;;6.37;;
4424;SDS011;2225;53.568;13.266;2023-09-30T02:21:28;21.07;;;5.30;;
4424;SDS011;2225;53.568;13.266;2023-09-30T02:23:56;17.43;;;4.60;;
4424;SDS011;2225;53.568;13.266;2023-09-30T02:26:23;29.33;;;5.60;;
4424;SDS011;2225;53.568;13.266;2023-09-30T02:28:51;29.73;;;6.37;;
4424;SDS011;2225;53.568;13.266;2023-09-30T02:31:20;19.63;;;4.10;;
4424;SDS011;2225;53.568;13.266;2023-09-30T02:33:47;16.60;;;5.40;;
4424;SDS011;2225;53.568;13.266;2023-09-30T02:36:14;18.83;;;5.13;;
4424;SDS011;2225;53.568;13.266;2023-09-30T02:38:42;27.90;;;5.47;;
4424;SDS011;2225;53.568;13.266;2023-09-30T02:41:09;19.00;;;5.00;;
4424;SDS011;2225;53.568;13.266;2023-09-30T02:43:36;27.53;;;5.60;;
4424;SDS011;2225;53.568;13.266;2023-09-30T02:46:04;19.37;;;4.67;;
4424;SDS011;2225;53.568;13.266;2023-09-30T02:48:31;20.60;;;4.93;;
4424;SDS011;2225;53.568;13.266;2023-09-30T02:50:58;25.00;;;5.50;;
4424;SDS011;2225;53.568;13.266;2023-09-30T02:53:26;28.70;;;6.47;;
4424;SDS011;2225;53.568;13.266;2023-09-30T02:55:54;31.83;;;5.40;;
4424;SDS011;2225;53.568;13.266;2023-09-30T02:58:23;17.27;;;4.70;;
4424;SDS011;2225;53.568;13.266;2023-09-30T03:00:52;18.33;;;4.33;;
4424;SDS011;2225;53.568;13.266;2023-09-30T03:03:19;24.60;;;5.40;;
4424;SDS011;2225;53.568;13.266;2023-09-30T03:05:46;23.93;;;5.60;;
4424;SDS011;2225;53.568;13.266;2023-09-30T03:08:16;19.67;;;4.77;;
4424;SDS011;2225;53.568;13.266;2023-09-30T03:10:43;24.83;;;5.03;;
4424;SDS011;2225;53.568;13.266;2023-09-30T03:13:10;23.63;;;4.47;;
4424;SDS011;2225;53.568;13.266;2023-09-30T03:15:36;24.17;;;5.43;;
4424;SDS011;2225;53.568;13.266;2023-09-30T03:18:05;27.93;;;5.90;;
4424;SDS011;2225;53.568;13.266;2023-09-30T03:20:32;22.50;;;4.70;;
4424;SDS011;2225;53.568;13.266;2023-09-30T03:22:59;25.13;;;6.00;;
4424;SDS011;2225;53.568;13.266;2023-09-30T03:25:26;24.70;;;6.13;;
4424;SDS011;2225;53.568;13.266;2023-09-30T03:27:53;36.23;;;6.37;;
4424;SDS011;2225;53.568;13.266;2023-09-30T03:30:20;21.83;;;5.73;;
4424;SDS011;2225;53.568;13.266;2023-09-30T03:32:47;31.50;;;5.13;;
4424;SDS011;2225;53.568;13.266;2023-09-30T03:35:15;24.80;;;5.40;;
4424;SDS011;2225;53.568;13.266;2023-09-30T03:37:44;16.70;;;4.93;;
4424;SDS011;2225;53.568;13.266;2023-09-30T03:40:14;21.60;;;5.67;;
4424;SDS011;2225;53.568;13.266;2023-09-30T03:42:46;20.53;;;4.77;;
4424;SDS011;2225;53.568;13.266;2023-09-30T03:45:16;20.93;;;4.40;;
4424;SDS011;2225;53.568;13.266;2023-09-30T03:47:43;21.73;;;5.03;;
4424;SDS011;2225;53.568;13.266;2023-09-30T03:50:12;26.00;;;5.47;;
4424;SDS011;2225;53.568;13.266;2023-09-30T03:52:41;22.03;;;5.30;;
4424;SDS011;2225;53.568;13.266;2023-09-30T03:55:14;21.60;;;5.10;;
4424;SDS011;2225;53.568;13.266;2023-09-30T03:57:47;21.90;;;5.20;;
4424;SDS011;2225;53.568;13.266;2023-09-30T04:00:15;34.63;;;5.40;;
4424;SDS011;2225;53.568;13.266;2023-09-30T04:02:47;37.50;;;6.40;;
4424;SDS011;2225;53.568;13.266;2023-09-30T04:05:20;25.20;;;5.17;;
4424;SDS011;2225;53.568;13.266;2023-09-30T04:07:52;21.57;;;5.07;;
4424;SDS011;2225;53.568;13.266;2023-09-30T04:10:19;24.13;;;4.73;;
4424;SDS011;2225;53.568;13.266;2023-09-30T04:12:48;33.50;;;5.50;;
4424;SDS011;2225;53.568;13.266;2023-09-30T04:15:16;21.83;;;5.60;;
4424;SDS011;2225;53.568;13.266;2023-09-30T04:17:44;23.30;;;4.93;;
4424;SDS011;2225;53.568;13.266;2023-09-30T04:20:11;20.50;;;5.30;;
4424;SDS011;2225;53.568;13.266;2023-09-30T04:22:45;22.13;;;6.00;;
4424;SDS011;2225;53.568;13.266;2023-09-30T04:25:16;23.97;;;5.50;;
4424;SDS011;2225;53.568;13.266;2023-09-30T04:27:44;32.77;;;5.50;;
4424;SDS011;2225;53.568;13.266;2023-09-30T04:30:14;24.17;;;5.90;;
4424;SDS011;2225;53.568;13.266;2023-09-30T04:32:42;22.70;;;5.20;;
4424;SDS011;2225;53.568;13.266;2023-09-30T04:35:10;32.17;;;4.47;;
4424;SDS011;2225;53.568;13.266;2023-09-30T04:37:37;29.33;;;6.67;;
4424;SDS011;2225;53.568;13.266;2023-09-30T04:40:06;27.60;;;5.40;;
4424;SDS011;2225;53.568;13.266;2023-09-30T04:42:48;25.80;;;6.20;;
4424;SDS011;2225;53.568;13.266;2023-09-30T04:45:16;18.33;;;4.40;;
4424;SDS011;2225;53.568;13.266;2023-09-30T04:47:43;27.83;;;5.93;;
4424;SDS011;2225;53.568;13.266;2023-09-30T04:50:15;31.17;;;5.17;;
4424;SDS011;2225;53.568;13.266;2023-09-30T04:52:43;30.10;;;6.37;;
4424;SDS011;2225;53.568;13.266;2023-09-30T04:55:11;21.40;;;5.17;;
4424;SDS011;2225;53.568;13.266;2023-09-30T04:57:39;25.33;;;6.63;;
4424;SDS011;2225;53.568;13.266;2023-09-30T05:00:07;33.37;;;6.03;;
4424;SDS011;2225;53.568;13.266;2023-09-30T05:02:37;22.40;;;5.00;;
4424;SDS011;2225;53.568;13.266;2023-09-30T05:05:04;21.30;;;5.10;;
4424;SDS011;2225;53.568;13.266;2023-09-30T05:07:32;16.93;;;4.70;;
4424;SDS011;2225;53.568;13.266;2023-09-30T05:09:59;20.63;;;5.13;;
4424;SDS011;2225;53.568;13.266;2023-09-30T05:12:29;32.90;;;5.50;;
4424;SDS011;2225;53.568;13.266;2023-09-30T05:14:56;22.63;;;5.07;;
4424;SDS011;2225;53.568;13.266;2023-09-30T05:17:23;20.40;;;4.70;;
4424;SDS011;2225;53.568;13.266;2023-09-30T05:19:50;17.83;;;5.10;;
4424;SDS011;2225;53.568;13.266;2023-09-30T05:22:17;26.47;;;6.53;;
4424;SDS011;2225;53.568;13.266;2023-09-30T05:24:52;17.70;;;4.63;;
4424;SDS011;2225;53.568;13.266;2023-09-30T05:27:20;25.13;;;5.50;;
4424;SDS011;2225;53.568;13.266;2023-09-30T05:29:47;22.40;;;5.37;;
4424;SDS011;2225;53.568;13.266;2023-09-30T05:32:15;20.47;;;5.27;;
4424;SDS011;2225;53.568;13.266;2023-09-30T05:34:42;17.10;;;4.40;;
4424;SDS011;2225;53.568;13.266;2023-09-30T05:37:12;21.73;;;4.83;;
4424;SDS011;2225;53.568;13.266;2023-09-30T05:39:39;22.37;;;5.00;;
4424;SDS011;2225;53.568;13.266;2023-09-30T05:42:06;21.80;;;5.43;;
4424;SDS011;2225;53.568;13.266;2023-09-30T05:44:35;23.03;;;5.33;;
4424;SDS011;2225;53.568;13.266;2023-09-30T05:47:02;20.43;;;4.80;;
4424;SDS011;2225;53.568;13.266;2023-09-30T05:49:29;18.23;;;5.10;;
4424;SDS011;2225;53.568;13.266;2023-09-30T05:51:56;17.33;;;5.37;;
4424;SDS011;2225;53.568;13.266;2023-09-30T05:54:23;18.63;;;4.50;;
4424;SDS011;2225;53.568;13.266;2023-09-30T05:56:50;25.73;;;5.17;;
4424;SDS011;2225;53.568;13.266;2023-09-30T05:59:17;17.07;;;4.80;;
4424;SDS011;2225;53.568;13.266;2023-09-30T06:01:44;29.13;;;5.47;;
4424;SDS011;2225;53.568;13.266;2023-09-30T06:04:12;25.20;;;5.83;;
4424;SDS011;2225;53.568;13.266;2023-09-30T06:06:39;19.43;;;5.57;;
4424;SDS011;2225;53.568;13.266;2023-09-30T06:09:06;29.73;;;5.50;;
4424;SDS011;2225;53.568;13.266;2023-09-30T06:11:34;29.80;;;6.20;;
4424;SDS011;2225;53.568;13.266;2023-09-30T06:14:02;24.43;;;4.30;;
4424;SDS011;2225;53.568;13.266;2023-09-30T06:16:30;23.87;;;5.77;;
4424;SDS011;2225;53.568;13.266;2023-09-30T06:18:58;23.77;;;6.03;;
4424;SDS011;2225;53.568;13.266;2023-09-30T06:21:25;21.40;;;5.67;;
4424;SDS011;2225;53.568;13.266;2023-09-30T06:23:55;20.20;;;5.17;;
4424;SDS011;2225;53.568;13.266;2023-09-30T06:26:22;28.37;;;5.83;;
4424;SDS011;2225;53.568;13.266;2023-09-30T06:28:51;23.40;;;6.67;;
4424;SDS011;2225;53.568;13.266;2023-09-30T06:31:20;18.30;;;4.67;;
4424;SDS011;2225;53.568;13.266;2023-09-30T06:33:47;19.60;;;4.60;;
4424;SDS011;2225;53.568;13.266;2023-09-30T06:36:15;16.47;;;4.87;;
4424;SDS011;2225;53.568;13.266;2023-09-30T06:38:45;23.43;;;5.20;;
4424;SDS011;2225;53.568;13.266;2023-09-30T06:41:18;28.20;;;5.97;;
4424;SDS011;2225;53.568;13.266;2023-09-30T06:43:45;21.20;;;4.80;;
4424;SDS011;2225;53.568;13.266;2023-09-30T06:46:13;17.40;;;4.50;;
4424;SDS011;2225;53.568;13.266;2023-09-30T06:48:40;19.47;;;4.87;;
4424;SDS011;2225;53.568;13.266;2023-09-30T06:51:07;28.20;;;5.30;;
4424;SDS011;2225;53.568;13.266;2023-09-30T06:53:36;23.63;;;5.70;;
4424;SDS011;2225;53.568;13.266;2023-09-30T06:56:06;17.70;;;4.97;;
4424;SDS011;2225;53.568;13.266;2023-09-30T06:58:33;21.77;;;5.50;;
4424;SDS011;2225;53.568;13.266;2023-09-30T07:01:00;16.00;;;3.87;;
4424;SDS011;2225;53.568;13.266;2023-09-30T07:03:27;20.63;;;4.43;;
4424;SDS011;2225;53.568;13.266;2023-09-30T07:05:55;33.60;;;5.50;;
4424;SDS011;2225;53.568;13.266;2023-09-30T07:08:23;25.17;;;5.40;;
4424;SDS011;2225;53.568;13.266;2023-09-30T07:10:50;19.93;;;5.67;;
4424;SDS011;2225;53.568;13.266;2023-09-30T07:13:18;21.07;;;5.40;;
4424;SDS011;2225;53.568;13.266;2023-09-30T07:15:47;21.10;;;5.20;;
4424;SDS011;2225;53.568;13.266;2023-09-30T07:18:14;17.33;;;4.90;;
4424;SDS011;2225;53.568;13.266;2023-09-30T07:20:41;27.17;;;6.07;;
4424;SDS011;2225;53.568;13.266;2023-09-30T07:23:08;28.20;;;5.83;;
4424;SDS011;2225;53.568;13.266;2023-09-30T07:25:45;25.80;;;5.40;;
4424;SDS011;2225;53.568;13.266;2023-09-30T07:28:12;18.97;;;5.50;;
4424;SDS011;2225;53.568;13.266;2023-09-30T07:30:39;24.97;;;6.13;;
4424;SDS011;2225;53.568;13.266;2023-09-30T07:33:07;24.30;;;5.03;;
4424;SDS011;2225;53.568;13.266;2023-09-30T07:35:34;24.40;;;5.07;;
4424;SDS011;2225;53.568;13.266;2023-09-30T07:38:01;23.00;;;4.67;;
4424;SDS011;2225;53.568;13.266;2023-09-30T07:40:29;18.57;;;4.27;;
4424;SDS011;2225;53.568;13.266;2023-09-30T07:42:56;20.77;;;5.13;;
4424;SDS011;2225;53.568;13.266;2023-09-30T07:45:24;18.87;;;4.60;;
4424;SDS011;2225;53.568;13.266;2023-09-30T07:47:51;18.50;;;4.83;;
4424;SDS011;2225;53.568;13.266;2023-09-30T07:50:18;24.07;;;5.27;;
4424;SDS011;2225;53.568;13.266;2023-09-30T07:52:45;27.70;;;4.53;;
4424;SDS011;2225;53.568;13.266;2023-09-30T07:55:12;21.40;;;5.43;;
4424;SDS011;2225;53.568;13.266;2023-09-30T07:57:40;16.40;;;4.67;;
4424;SDS011;2225;53.568;13.266;2023-09-30T08:00:09;22.43;;;5.23;;
4424;SDS011;2225;53.568;13.266;2023-09-30T08:02:41;33.20;;;5.90;;
4424;SDS011;2225;53.568;13.266;2023-09-30T08:05:09;20.30;;;5.27;;
4424;SDS011;2225;53.568;13.266;2023-09-30T08:07:37;31.00;;;5.30;;
4424;SDS011;2225;53.568;13.266;2023-09-30T08:10:04;23.70;;;5.57;;
4424;SDS011;2225;53.568;13.266;2023-09-30T08:12:33;24.00;;;5.00;;
4424;SDS011;2225;53.568;13.266;2023-09-30T08:15:00;22.77;;;5.97;;
4424;SDS011;2225;53.568;13.266;2023-09-30T08:17:30;29.10;;;4.90;;
4424;SDS011;2225;53.568;13.266;2023-09-30T08:19:57;35.63;;;5.70;;
4424;SDS011;2225;53.568;13.266;2023-09-30T08:22:24;23.60;;;5.40;;
4424;SDS011;2225;53.568;13.266;2023-09-30T08:24:54;25.47;;;4.97;;
4424;SDS011;2225;53.568;13.266;2023-09-30T08:27:21;17.53;;;5.30;;
4424;SDS011;2225;53.568;13.266;2023-09-30T08:29:50;27.27;;;5.90;;
4424;SDS011;2225;53.568;13.266;2023-09-30T08:32:17;19.33;;;4.37;;
4424;SDS011;2225;53.568;13.266;2023-09-30T08:34:44;17.60;;;5.30;;
4424;SDS011;2225;53.568;13.266;2023-09-30T08:37:11;20.60;;;5.60;;
4424;SDS011;2225;53.568;13.266;2023-09-30T08:39:38;25.73;;;5.00;;
4424;SDS011;2225;53.568;13.266;2023-09-30T08:42:09;24.07;;;5.57;;
4424;SDS011;2225;53.568;13.266;2023-09-30T08:44:40;21.60;;;4.90;;
4424;SDS011;2225;53.568;13.266;2023-09-30T08:47:08;29.77;;;5.07;;
4424;SDS011;2225;53.568;13.266;2023-09-30T08:49:41;19.13;;;4.50;;
4424;SDS011;2225;53.568;13.266;2023-09-30T08:52:10;21.63;;;5.20;;
4424;SDS011;2225;53.568;13.266;2023-09-30T08:54:39;26.87;;;5.03;;
4424;SDS011;2225;53.568;13.266;2023-09-30T08:57:08;29.23;;;5.37;;
4424;SDS011;2225;53.568;13.266;2023-09-30T08:59:36;20.13;;;4.50;;
4424;SDS011;2225;53.568;13.266;2023-09-30T09:02:08;24.03;;;4.77;;
4424;SDS011;2225;53.568;13.266;2023-09-30T09:04:36;21.67;;;4.70;;
4424;SDS011;2225;53.568;13.266;2023-09-30T09:07:04;24.83;;;4.37;;
4424;SDS011;2225;53.568;13.266;2023-09-30T09:09:31;18.97;;;3.80;;
4424;SDS011;2225;53.568;13.266;2023-09-30T09:11:58;29.60;;;5.00;;
4424;SDS011;2225;53.568;13.266;2023-09-30T09:14:36;25.40;;;5.53;;
4424;SDS011;2225;53.568;13.266;2023-09-30T09:17:07;24.00;;;4.17;;
4424;SDS011;2225;53.568;13.266;2023-09-30T09:19:36;20.63;;;4.67;;
4424;SDS011;2225;53.568;13.266;2023-09-30T09:22:03;13.87;;;3.93;;
4424;SDS011;2225;53.568;13.266;2023-09-30T09:24:31;28.70;;;4.77;;
4424;SDS011;2225;53.568;13.266;2023-09-30T09:27:12;19.43;;;4.57;;
4424;SDS011;2225;53.568;13.266;2023-09-30T09:29:43;21.50;;;4.47;;
4424;SDS011;2225;53.568;13.266;2023-09-30T09:32:15;17.47;;;3.60;;
4424;SDS011;2225;53.568;13.266;2023-09-30T09:34:43;18.60;;;3.80;;
4424;SDS011;2225;53.568;13.266;2023-09-30T09:39:50;20.73;;;4.63;;
4424;SDS011;2225;53.568;13.266;2023-09-30T09:42:32;20.40;;;4.60;;
4424;SDS011;2225;53.568;13.266;2023-09-30T09:45:03;21.10;;;4.63;;
4424;SDS011;2225;53.568;13.266;2023-09-30T09:47:32;31.30;;;4.30;;
4424;SDS011;2225;53.568;13.266;2023-09-30T09:50:01;20.97;;;4.37;;
4424;SDS011;2225;53.568;13.266;2023-09-30T09:52:32;23.63;;;4.00;;
4424;SDS011;2225;53.568;13.266;2023-09-30T09:55:02;20.47;;;4.10;;
4424;SDS011;2225;53.568;13.266;2023-09-30T09:57:30;19.10;;;4.70;;
4424;SDS011;2225;53.568;13.266;2023-09-30T09:59:58;22.60;;;4.80;;
4424;SDS011;2225;53.568;13.266;2023-09-30T10:02:26;19.67;;;4.20;;
4424;SDS011;2225;53.568;13.266;2023-09-30T10:04:55;16.77;;;3.47;;
4424;SDS011;2225;53.568;13.266;2023-09-30T10:07:27;24.23;;;3.83;;
4424;SDS011;2225;53.568;13.266;2023-09-30T10:10:07;20.57;;;5.13;;
4424;SDS011;2225;53.568;13.266;2023-09-30T10:12:40;24.73;;;4.70;;
4424;SDS011;2225;53.568;13.266;2023-09-30T10:17:57;26.23;;;4.47;;
4424;SDS011;2225;53.568;13.266;2023-09-30T10:20:31;18.77;;;4.30;;
4424;SDS011;2225;53.568;13.266;2023-09-30T10:25:48;34.07;;;4.67;;
4424;SDS011;2225;53.568;13.266;2023-09-30T10:28:32;21.23;;;4.03;;
4424;SDS011;2225;53.568;13.266;2023-09-30T10:31:20;24.60;;;5.20;;
4424;SDS011;2225;53.568;13.266;2023-09-30T10:36:28;15.10;;;3.63;;
4424;SDS011;2225;53.568;13.266;2023-09-30T10:38:59;16.87;;;4.13;;
4424;SDS011;2225;53.568;13.266;2023-09-30T10:41:48;31.53;;;5.60;;
4424;SDS011;2225;53.568;13.266;2023-09-30T10:46:51;23.73;;;4.80;;
4424;SDS011;2225;53.568;13.266;2023-09-30T10:51:49;22.53;;;4.80;;
4424;SDS011;2225;53.568;13.266;2023-09-30T10:54:24;14.90;;;3.83;;
4424;SDS011;2225;53.568;13.266;2023-09-30T10:56:53;25.77;;;5.10;;
4424;SDS011;2225;53.568;13.266;2023-09-30T10:59:39;16.80;;;3.80;;
4424;SDS011;2225;53.568;13.266;2023-09-30T11:02:18;31.83;;;4.63;;
4424;SDS011;2225;53.568;13.266;2023-09-30T11:04:47;20.40;;;4.10;;
4424;SDS011;2225;53.568;13.266;2023-09-30T11:07:18;22.30;;;4.03;;
4424;SDS011;2225;53.568;13.266;2023-09-30T11:09:50;16.33;;;3.93;;
4424;SDS011;2225;53.568;13.266;2023-09-30T11:12:17;17.03;;;4.07;;
4424;SDS011;2225;53.568;13.266;2023-09-30T11:14:44;19.50;;;4.40;;
4424;SDS011;2225;53.568;13.266;2023-09-30T11:17:11;21.00;;;3.67;;
4424;SDS011;2225;53.568;13.266;2023-09-30T11:19:47;19.70;;;3.50;;
4424;SDS011;2225;53.568;13.266;2023-09-30T11:22:15;27.10;;;4.60;;
4424;SDS011;2225;53.568;13.266;2023-09-30T11:24:42;23.70;;;4.07;;
4424;SDS011;2225;53.568;13.266;2023-09-30T11:27:09;14.20;;;3.13;;
4424;SDS011;2225;53.568;13.266;2023-09-30T11:29:36;22.50;;;3.53;;
4424;SDS011;2225;53.568;13.266;2023-09-30T11:32:03;16.43;;;3.00;;
4424;SDS011;2225;53.568;13.266;2023-09-30T11:34:34;14.73;;;3.13;;
4424;SDS011;2225;53.568;13.266;2023-09-30T11:37:02;11.17;;;3.10;;
4424;SDS011;2225;53.568;13.266;2023-09-30T11:39:30;19.63;;;4.33;;
4424;SDS011;2225;53.568;13.266;2023-09-30T11:41:57;18.17;;;3.20;;
4424;SDS011;2225;53.568;13.266;2023-09-30T11:44:24;14.17;;;3.07;;
4424;SDS011;2225;53.568;13.266;2023-09-30T11:46:57;18.67;;;3.70;;
4424;SDS011;2225;53.568;13.266;2023-09-30T11:49:36;23.83;;;3.03;;
4424;SDS011;2225;53.568;13.266;2023-09-30T11:52:10;13.57;;;2.83;;
4424;SDS011;2225;53.568;13.266;2023-09-30T11:54:43;17.17;;;3.13;;
4424;SDS011;2225;53.568;13.266;2023-09-30T11:57:12;14.10;;;3.03;;
4424;SDS011;2225;53.568;13.266;2023-09-30T11:59:46;14.07;;;3.03;;
4424;SDS011;2225;53.568;13.266;2023-09-30T12:02:14;14.57;;;3.47;;
4424;SDS011;2225;53.568;13.266;2023-09-30T12:04:44;12.20;;;3.20;;
4424;SDS011;2225;53.568;13.266;2023-09-30T12:07:13;19.40;;;3.60;;
4424;SDS011;2225;53.568;13.266;2023-09-30T12:09:41;15.33;;;2.83;;
4424;SDS011;2225;53.568;13.266;2023-09-30T12:12:09;17.73;;;4.73;;
4424;SDS011;2225;53.568;13.266;2023-09-30T12:14:37;44.73;;;13.87;;
4424;SDS011;2225;53.568;13.266;2023-09-30T12:17:05;39.83;;;12.80;;
4424;SDS011;2225;53.568;13.266;2023-09-30T12:19:32;22.17;;;4.67;;
4424;SDS011;2225;53.568;13.266;2023-09-30T12:21:59;10.80;;;2.83;;
4424;SDS011;2225;53.568;13.266;2023-09-30T12:24:26;10.50;;;2.83;;
4424;SDS011;2225;53.568;13.266;2023-09-30T12:26:53;12.20;;;2.93;;
4424;SDS011;2225;53.568;13.266;2023-09-30T12:29:21;19.87;;;3.20;;
4424;SDS011;2225;53.568;13.266;2023-09-30T12:31:51;20.03;;;3.30;;
4424;SDS011;2225;53.568;13.266;2023-09-30T12:34:20;16.63;;;3.03;;
4424;SDS011;2225;53.568;13.266;2023-09-30T12:36:52;17.17;;;3.40;;
4424;SDS011;2225;53.568;13.266;2023-09-30T12:39:20;14.53;;;3.50;;
4424;SDS011;2225;53.568;13.266;2023-09-30T12:41:51;11.73;;;2.80;;
4424;SDS011;2225;53.568;13.266;2023-09-30T12:44:18;14.23;;;3.20;;
4424;SDS011;2225;53.568;13.266;2023-09-30T12:46:46;16.70;;;3.63;;
4424;SDS011;2225;53.568;13.266;2023-09-30T12:49:13;17.90;;;3.50;;
4424;SDS011;2225;53.568;13.266;2023-09-30T12:51:40;11.77;;;2.80;;
4424;SDS011;2225;53.568;13.266;2023-09-30T12:54:08;12.53;;;3.20;;
4424;SDS011;2225;53.568;13.266;2023-09-30T12:56:35;11.70;;;2.90;;
4424;SDS011;2225;53.568;13.266;2023-09-30T12:59:03;13.80;;;3.10;;
4424;SDS011;2225;53.568;13.266;2023-09-30T13:01:30;17.00;;;3.40;;
4424;SDS011;2225;53.568;13.266;2023-09-30T13:04:01;12.40;;;3.17;;
4424;SDS011;2225;53.568;13.266;2023-09-30T13:06:28;11.77;;;3.00;;
4424;SDS011;2225;53.568;13.266;2023-09-30T13:08:57;14.60;;;3.30;;
4424;SDS011;2225;53.568;13.266;2023-09-30T13:11:25;11.60;;;3.23;;
4424;SDS011;2225;53.568;13.266;2023-09-30T13:13:52;23.10;;;3.20;;
4424;SDS011;2225;53.568;13.266;2023-09-30T13:16:19;19.67;;;3.47;;
4424;SDS011;2225;53.568;13.266;2023-09-30T13:18:47;22.70;;;2.97;;
4424;SDS011;2225;53.568;13.266;2023-09-30T13:21:14;13.57;;;3.00;;
4424;SDS011;2225;53.568;13.266;2023-09-30T13:23:42;14.67;;;3.73;;
4424;SDS011;2225;53.568;13.266;2023-09-30T13:26:09;14.73;;;3.30;;
4424;SDS011;2225;53.568;13.266;2023-09-30T13:28:36;17.33;;;3.97;;
4424;SDS011;2225;53.568;13.266;2023-09-30T13:31:03;13.60;;;2.80;;
4424;SDS011;2225;53.568;13.266;2023-09-30T13:33:30;16.80;;;2.60;;
4424;SDS011;2225;53.568;13.266;2023-09-30T13:35:57;22.93;;;3.90;;
4424;SDS011;2225;53.568;13.266;2023-09-30T13:38:24;17.53;;;3.03;;
4424;SDS011;2225;53.568;13.266;2023-09-30T13:40:51;16.37;;;3.10;;
4424;SDS011;2225;53.568;13.266;2023-09-30T13:43:18;18.17;;;3.87;;
4424;SDS011;2225;53.568;13.266;2023-09-30T13:45:45;14.23;;;2.60;;
4424;SDS011;2225;53.568;13.266;2023-09-30T13:48:12;13.37;;;2.70;;
4424;SDS011;2225;53.568;13.266;2023-09-30T13:50:39;20.13;;;3.33;;
4424;SDS011;2225;53.568;13.266;2023-09-30T13:53:06;15.73;;;3.27;;
4424;SDS011;2225;53.568;13.266;2023-09-30T13:55:37;20.17;;;3.80;;
4424;SDS011;2225;53.568;13.266;2023-09-30T13:58:05;12.80;;;3.00;;
4424;SDS011;2225;53.568;13.266;2023-09-30T14:00:32;14.33;;;2.90;;
4424;SDS011;2225;53.568;13.266;2023-09-30T14:02:59;15.33;;;3.13;;
4424;SDS011;2225;53.568;13.266;2023-09-30T14:05:27;12.90;;;3.10;;
4424;SDS011;2225;53.568;13.266;2023-09-30T14:07:54;12.10;;;3.43;;
4424;SDS011;2225;53.568;13.266;2023-09-30T14:10:21;15.53;;;3.70;;
4424;SDS011;2225;53.568;13.266;2023-09-30T14:12:48;15.57;;;3.67;;
4424;SDS011;2225;53.568;13.266;2023-09-30T14:15:15;10.30;;;2.60;;
4424;SDS011;2225;53.568;13.266;2023-09-30T14:17:42;10.23;;;3.00;;
4424;SDS011;2225;53.568;13.266;2023-09-30T14:20:11;13.63;;;3.30;;
4424;SDS011;2225;53.568;13.266;2023-09-30T14:22:38;14.10;;;2.67;;
4424;SDS011;2225;53.568;13.266;2023-09-30T14:25:06;12.40;;;2.77;;
4424;SDS011;2225;53.568;13.266;2023-09-30T14:27:34;13.67;;;2.83;;
4424;SDS011;2225;53.568;13.266;2023-09-30T14:30:01;18.30;;;2.87;;
4424;SDS011;2225;53.568;13.266;2023-09-30T14:32:28;14.70;;;2.67;;
4424;SDS011;2225;53.568;13.266;2023-09-30T14:34:55;15.97;;;3.10;;
4424;SDS011;2225;53.568;13.266;2023-09-30T14:37:24;13.03;;;2.93;;
4424;SDS011;2225;53.568;13.266;2023-09-30T14:39:51;12.63;;;3.60;;
4424;SDS011;2225;53.568;13.266;2023-09-30T14:42:18;12.40;;;2.87;;
4424;SDS011;2225;53.568;13.266;2023-09-30T14:44:44;17.83;;;3.83;;
4424;SDS011;2225;53.568;13.266;2023-09-30T14:47:11;15.93;;;2.97;;
4424;SDS011;2225;53.568;13.266;2023-09-30T14:49:38;12.23;;;2.80;;
4424;SDS011;2225;53.568;13.266;2023-09-30T14:52:05;10.63;;;2.53;;
4424;SDS011;2225;53.568;13.266;2023-09-30T14:54:33;12.63;;;3.03;;
4424;SDS011;2225;53.568;13.266;2023-09-30T14:57:00;11.40;;;3.10;;
4424;SDS011;2225;53.568;13.266;2023-09-30T14:59:27;13.67;;;3.50;;
4424;SDS011;2225;53.568;13.266;2023-09-30T15:01:54;19.77;;;3.90;;
4424;SDS011;2225;53.568;13.266;2023-09-30T15:04:21;14.63;;;3.53;;
4424;SDS011;2225;53.568;13.266;2023-09-30T15:06:49;13.50;;;3.00;;
4424;SDS011;2225;53.568;13.266;2023-09-30T15:09:16;14.13;;;4.40;;
4424;SDS011;2225;53.568;13.266;2023-09-30T15:11:44;12.50;;;2.60;;